Time;durP1;ratioP1;P1;durP2;ratioP2;P2;SDS_P1;SDS_P2;PMS_P1;PMS_P2;Temp;Humidity;BMP_temperature;BMP_pressure;BME280_temperature;BME280_humidity;BME280_pressure;Samples;Min_cycle;Max_cycle;Signal;HPM_P1;HPM_P2
2024/01/31 00:05:40;;;;;;;20.10;10.80;;;;;;;2.09;71.80;99975.81;436356;1251;110572;-39
2024/01/31 00:15:43;;;;;;;21.90;13.00;;;;;;;2.01;72.17;99976.17;436321;1254;108328;-39
2024/01/31 00:25:47;;;;;;;27.00;12.80;;;;;;;1.91;72.47;99980.41;436336;1253;97472;-39
2024/01/31 00:35:52;;;;;;;19.00;10.40;;;;;;;1.85;72.71;99981.98;436366;1254;97862;-39
2024/01/31 00:55:58;;;;;;;23.70;12.20;;;;;;;1.90;73.07;99976.88;436308;1253;98316;-39
2024/01/31 01:06:04;;;;;;;24.50;12.90;;;;;;;1.83;73.38;99976.50;436477;1252;97873;-39
2024/01/31 01:16:08;;;;;;;21.40;11.80;;;;;;;1.74;73.66;99972.21;436282;1253;108510;-40
2024/01/31 01:26:13;;;;;;;15.90;9.40;;;;;;;1.75;73.60;99966.55;436250;1253;97495;-39
2024/01/31 01:36:16;;;;;;;19.40;11.30;;;;;;;1.78;73.74;99956.05;436219;1249;111329;-40
2024/01/31 01:46:24;;;;;;;24.10;13.00;;;;;;;1.77;73.93;99957.90;436153;1248;108469;-39
2024/01/31 01:56:28;;;;;;;25.80;13.80;;;;;;;1.68;74.04;99953.04;436393;1250;96663;-39
2024/01/31 02:06:32;;;;;;;28.40;14.10;;;;;;;1.59;74.40;99951.92;436884;1251;97868;-42
2024/01/31 02:26:43;;;;;;;19.20;10.40;;;;;;;1.65;74.69;99965.58;435495;1253;98694;-39
2024/01/31 02:36:50;;;;;;;27.50;13.50;;;;;;;1.66;74.91;99965.36;435455;1251;107446;-39
2024/01/31 02:46:54;;;;;;;23.40;13.60;;;;;;;1.60;75.14;99967.77;435459;1254;96888;-38
2024/01/31 02:56:58;;;;;;;29.20;14.50;;;;;;;1.54;75.33;99967.46;435502;1253;96648;-39
2024/01/31 03:07:01;;;;;;;20.90;11.00;;;;;;;1.60;75.44;99964.84;435543;1254;108314;-38
2024/01/31 03:17:05;;;;;;;17.80;12.10;;;;;;;1.70;75.58;99964.31;435422;1251;96650;-39
2024/01/31 03:27:09;;;;;;;29.60;15.00;;;;;;;1.75;75.61;99961.75;435511;1251;109797;-40
2024/01/31 03:37:12;;;;;;;31.40;16.20;;;;;;;1.73;75.96;99956.73;435461;1254;97503;-39
2024/01/31 03:47:15;;;;;;;32.30;16.40;;;;;;;1.69;75.92;99960.92;435562;1251;98031;-39
2024/01/31 04:07:22;;;;;;;21.20;11.60;;;;;;;1.81;76.00;99961.31;435567;1253;108219;-39
2024/01/31 04:37:32;;;;;;;28.70;15.10;;;;;;;1.69;76.45;99969.27;435429;1250;107283;-40
2024/01/31 05:17:49;;;;;;;34.90;19.10;;;;;;;2.06;76.92;99975.55;435697;1252;97899;-39
2024/01/31 05:27:53;;;;;;;22.60;14.70;;;;;;;2.14;77.07;99989.83;435542;1253;97890;-39
2024/01/31 05:37:56;;;;;;;28.20;16.20;;;;;;;2.25;77.14;99984.36;435552;1253;107141;-40
2024/01/31 05:48:01;;;;;;;34.00;18.70;;;;;;;2.31;77.32;99974.09;435652;1249;97470;-39
2024/01/31 05:58:05;;;;;;;39.80;20.30;;;;;;;2.31;77.25;99977.91;435523;1253;109341;-40
2024/01/31 06:08:09;;;;;;;36.30;20.40;;;;;;;2.29;77.21;99982.06;435482;1254;98196;-39
2024/01/31 06:28:17;;;;;;;28.10;17.30;;;;;;;2.50;77.28;100001.23;435621;1250;109884;-40
2024/01/31 06:38:24;;;;;;;41.30;21.80;;;;;;;2.54;77.47;100011.09;435527;1253;108628;-38
2024/01/31 06:58:32;;;;;;;41.50;19.70;;;;;;;2.49;77.67;100017.16;435555;1253;97871;-39
2024/01/31 07:08:35;;;;;;;24.80;15.90;;;;;;;2.55;77.64;100015.71;435595;1250;107762;-39
2024/01/31 07:18:44;;;;;;;32.20;17.60;;;;;;;2.66;77.78;100017.95;435397;1250;97874;-39
2024/01/31 07:28:51;;;;;;;38.00;21.90;;;;;;;2.73;77.81;100014.66;435436;1249;107803;-39
2024/01/31 07:38:55;;;;;;;43.00;23.70;;;;;;;2.74;77.77;100017.38;435596;1253;97902;-40
2024/01/31 07:48:59;;;;;;;46.70;24.70;;;;;;;2.76;77.76;100016.59;435615;1253;97861;-41
2024/01/31 08:09:06;;;;;;;30.70;17.90;;;;;;;3.01;77.72;100031.48;435584;1251;96927;-40
2024/01/31 08:19:24;;;;;;;29.70;18.50;;;;;;;3.23;77.76;100030.97;435484;1253;110857;-39
2024/01/31 08:29:29;;;;;;;49.90;26.90;;;;;;;3.42;77.87;100038.16;435263;1253;438477;-38
2024/01/31 08:39:33;;;;;;;51.50;26.40;;;;;;;3.55;77.73;100052.23;435593;1249;97891;-39
2024/01/31 08:49:36;;;;;;;54.90;26.20;;;;;;;3.63;77.62;100057.73;435489;1253;96660;-40
2024/01/31 08:59:40;;;;;;;42.90;23.90;;;;;;;3.64;77.64;100063.73;435678;1249;107602;-40
2024/01/31 09:09:43;;;;;;;32.90;19.70;;;;;;;3.62;77.65;100061.08;435460;1250;97244;-39
2024/01/31 09:19:47;;;;;;;34.80;20.50;;;;;;;3.67;77.81;100064.15;435448;1253;107963;-40
2024/01/31 09:29:51;;;;;;;49.00;27.70;;;;;;;3.72;78.08;100071.29;435805;1253;97902;-39
2024/01/31 09:39:58;;;;;;;41.40;23.20;;;;;;;3.75;78.19;100066.85;435544;1253;110611;-39
2024/01/31 10:00:08;;;;;;;34.00;22.40;;;;;;;3.62;78.40;100082.16;435607;1250;96657;-39
2024/01/31 10:10:23;;;;;;;33.40;19.50;;;;;;;3.73;78.63;100074.27;435564;1253;108712;-39
2024/01/31 10:20:27;;;;;;;51.60;30.20;;;;;;;3.84;78.74;100071.20;435771;1250;108904;-40
2024/01/31 10:30:30;;;;;;;52.70;29.70;;;;;;;3.83;78.72;100062.66;435545;1253;97782;-40
2024/01/31 10:40:34;;;;;;;58.20;30.50;;;;;;;3.78;78.76;100041.72;435503;1253;97856;-39
2024/01/31 10:50:40;;;;;;;44.10;19.90;;;;;;;3.78;78.72;100026.45;435585;1253;106654;-40
2024/01/31 11:20:58;;;;;;;62.90;34.20;;;;;;;4.28;79.17;100020.44;435537;1253;97870;-40
2024/01/31 11:31:03;;;;;;;53.00;31.00;;;;;;;4.42;79.28;100023.06;435601;1253;96643;-40
2024/01/31 11:41:10;;;;;;;41.20;25.20;;;;;;;4.59;79.06;100018.23;435699;1250;107621;-39
2024/01/31 11:51:14;;;;;;;39.60;24.40;;;;;;;4.85;79.28;99997.98;435356;1253;97871;-40
2024/01/31 12:01:18;;;;;;;47.60;27.80;;;;;;;5.14;79.39;99987.01;435467;1253;109745;-38
2024/01/31 12:11:21;;;;;;;52.60;29.40;;;;;;;5.21;79.30;99983.11;435394;1251;97953;-40
2024/01/31 12:21:28;;;;;;;47.00;27.20;;;;;;;5.10;79.37;99976.88;435471;1253;97867;-39
2024/01/31 12:31:32;;;;;;;37.50;23.70;;;;;;;5.05;79.11;99966.65;435401;1249;98507;-39
2024/01/31 12:41:35;;;;;;;40.90;25.60;;;;;;;5.09;79.27;99958.95;435420;1253;108426;-40
2024/01/31 12:51:39;;;;;;;47.70;27.70;;;;;;;5.23;79.52;99956.81;435409;1251;96733;-38
2024/01/31 13:01:43;;;;;;;49.50;27.20;;;;;;;5.30;79.44;99953.77;435380;1253;110844;-39
2024/01/31 13:11:47;;;;;;;57.80;35.30;;;;;;;5.31;79.49;99955.38;435613;1253;96654;-39
2024/01/31 13:21:52;;;;;;;40.20;25.00;;;;;;;5.38;79.20;99953.60;435583;1251;98068;-40
2024/01/31 13:31:56;;;;;;;59.10;31.00;;;;;;;5.50;79.41;99940.10;435279;1251;109697;-40
2024/01/31 13:52:04;;;;;;;58.60;33.40;;;;;;;5.52;79.51;99934.48;435569;1253;97871;-39
2024/01/31 14:02:07;;;;;;;58.80;34.20;;;;;;;5.40;79.58;99934.71;435483;1253;97847;-38
2024/01/31 14:12:11;;;;;;;44.90;25.40;;;;;;;5.41;79.55;99927.60;435239;1253;108133;-40
2024/01/31 14:22:14;;;;;;;56.40;31.70;;;;;;;5.40;79.52;99919.45;435629;1253;97874;-39
2024/01/31 14:32:32;;;;;;;55.80;33.20;;;;;;;5.30;79.74;99904.36;435376;1253;107747;-40
2024/01/31 14:42:41;;;;;;;70.30;37.30;;;;;;;5.06;79.78;99902.61;435404;1251;97141;-39
2024/01/31 14:52:44;;;;;;;53.30;28.90;;;;;;;4.94;79.76;99895.39;435435;1253;98373;-39
2024/01/31 15:12:53;;;;;;;66.40;35.30;;;;;;;4.66;79.93;99876.03;435572;1252;97989;-40
2024/01/31 15:22:58;;;;;;;61.20;33.80;;;;;;;4.50;80.36;99883.14;435306;1253;110386;-40
2024/01/31 15:33:02;;;;;;;53.70;31.10;;;;;;;4.34;80.26;99877.45;435349;1254;97868;-38
2024/01/31 15:43:05;;;;;;;45.70;27.30;;;;;;;4.20;80.49;99879.89;435371;1250;97882;-39
2024/01/31 15:53:10;;;;;;;64.60;35.30;;;;;;;4.18;80.86;99879.03;435380;1251;112896;-40
2024/01/31 16:03:14;;;;;;;65.30;34.30;;;;;;;4.03;80.86;99875.44;435210;1251;108488;-40
2024/01/31 16:33:24;;;;;;;101.40;47.90;;;;;;;3.87;81.36;99876.02;435514;1253;97877;-39
2024/01/31 16:43:28;;;;;;;88.20;49.30;;;;;;;3.75;81.61;99883.20;435408;1253;108804;-39
2024/01/31 17:13:39;;;;;;;70.20;39.80;;;;;;;3.76;81.93;99912.38;435492;1250;108994;-40
2024/01/31 17:23:46;;;;;;;85.50;46.20;;;;;;;3.69;81.96;99905.05;435337;1253;109471;-39
2024/01/31 17:33:50;;;;;;;89.40;46.00;;;;;;;3.56;82.05;99892.61;435567;1253;96657;-39
2024/01/31 17:43:58;;;;;;;76.40;40.20;;;;;;;3.48;82.12;99884.67;435416;1251;109903;-39
2024/01/31 17:54:01;;;;;;;68.20;34.60;;;;;;;3.49;82.28;99887.50;435406;1253;97890;-40
2024/01/31 18:04:04;;;;;;;76.70;41.90;;;;;;;3.48;82.55;99873.98;435494;1253;98462;-40
2024/01/31 18:24:15;;;;;;;94.30;49.30;;;;;;;3.32;82.87;99860.95;435278;1251;107800;-40
2024/01/31 18:34:46;;;;;;;66.90;38.00;;;;;;;3.28;82.81;99851.80;435522;1253;97867;-39
2024/01/31 18:54:53;;;;;;;73.10;42.60;;;;;;;3.35;83.15;99809.31;435376;1257;108154;-39
2024/01/31 19:04:56;;;;;;;86.60;46.60;;;;;;;3.27;83.50;99795.78;435378;1256;97868;-39
2024/01/31 19:25:13;;;;;;;71.60;43.90;;;;;;;3.17;83.56;99770.87;435509;1253;96660;-40
2024/01/31 19:35:20;;;;;;;70.20;41.80;;;;;;;3.22;83.59;99756.55;435228;1263;97872;-39
2024/01/31 19:45:24;;;;;;;110.60;52.40;;;;;;;3.30;83.79;99755.08;435532;1253;109774;-39
2024/01/31 20:15:33;;;;;;;79.60;45.70;;;;;;;3.03;83.93;99707.24;435482;1263;98109;-39
2024/01/31 20:25:36;;;;;;;79.70;43.30;;;;;;;3.06;83.99;99697.52;435426;1253;108157;-38
2024/01/31 20:35:40;;;;;;;75.00;42.60;;;;;;;3.10;84.28;99684.67;435144;1251;454820;-40
2024/01/31 20:45:44;;;;;;;102.20;54.40;;;;;;;3.09;84.51;99668.16;435511;1253;106648;-39
2024/01/31 20:55:48;;;;;;;110.80;53.40;;;;;;;3.03;84.77;99655.90;435322;1254;97757;-39
2024/01/31 21:05:51;;;;;;;71.50;40.40;;;;;;;3.00;84.69;99641.26;435483;1253;98180;-40
2024/01/31 21:15:55;;;;;;;69.20;42.50;;;;;;;3.05;84.78;99626.52;435370;1263;108040;-41
2024/01/31 21:25:58;;;;;;;80.40;44.50;;;;;;;3.13;84.89;99614.67;435309;1253;98344;-39
2024/01/31 21:36:02;;;;;;;92.00;49.70;;;;;;;3.10;85.03;99608.48;435330;1251;110297;-39
2024/01/31 21:46:06;;;;;;;93.60;46.80;;;;;;;2.97;85.25;99594.71;435598;1254;107502;-39
2024/01/31 21:56:15;;;;;;;70.60;39.00;;;;;;;2.94;85.31;99572.56;435451;1254;97880;-39
2024/01/31 22:06:19;;;;;;;66.30;39.90;;;;;;;2.94;85.15;99550.25;435346;1254;110928;-40
2024/01/31 22:16:26;;;;;;;73.00;39.10;;;;;;;2.84;85.01;99532.14;435641;1263;108517;-39
2024/01/31 22:26:35;;;;;;;89.30;48.60;;;;;;;2.57;85.07;99531.30;435454;1251;118289;-39
2024/01/31 22:36:38;;;;;;;101.30;50.10;;;;;;;2.23;84.99;99527.39;435488;1251;110521;-39
2024/01/31 22:46:42;;;;;;;99.00;49.60;;;;;;;1.92;84.95;99523.32;435421;1254;97826;-39
2024/01/31 22:56:45;;;;;;;72.90;41.40;;;;;;;1.73;84.97;99504.44;435355;1251;96668;-40
2024/01/31 23:06:52;;;;;;;78.70;42.80;;;;;;;1.54;84.98;99484.77;435268;1263;107270;-39
2024/01/31 23:17:00;;;;;;;64.50;37.40;;;;;;;1.37;85.14;99450.95;435642;1254;97454;-39
2024/01/31 23:27:03;;;;;;;70.80;42.10;;;;;;;1.17;85.35;99421.29;435591;1251;111149;-38
2024/01/31 23:37:07;;;;;;;73.70;41.70;;;;;;;1.00;85.56;99405.09;435405;1255;108106;-39
2024/01/31 23:47:11;;;;;;;105.20;51.40;;;;;;;0.80;85.80;99394.59;435511;1253;98029;-39
2024/01/31 23:57:18;;;;;;;98.70;49.40;;;;;;;0.62;86.16;99389.36;435574;1253;97607;-40
